地図

経路データ

SID SEASON NUMBER BASIN SUBBASIN NAME ISO_TIME NATURE LAT LON WMO_WIND WMO_PRES WMO_AGENCY TRACK_TYPE DIST2LAND LANDFALL IFLAG USA_AGENCY USA_ATCF_ID USA_LAT USA_LON USA_RECORD USA_STATUS USA_WIND USA_PRES USA_SSHS USA_R34_NE USA_R34_SE USA_R34_SW USA_R34_NW USA_R50_NE USA_R50_SE USA_R50_SW USA_R50_NW USA_R64_NE USA_R64_SE USA_R64_SW USA_R64_NW USA_POCI USA_ROCI USA_RMW USA_EYE TOKYO_LAT TOKYO_LON TOKYO_GRADE TOKYO_WIND TOKYO_PRES TOKYO_R50_DIR TOKYO_R50_LONG TOKYO_R50_SHORT TOKYO_R30_DIR TOKYO_R30_LONG TOKYO_R30_SHORT TOKYO_LAND CMA_LAT CMA_LON CMA_CAT CMA_WIND CMA_PRES HKO_LAT HKO_LON HKO_CAT HKO_WIND HKO_PRES NEWDELHI_LAT NEWDELHI_LON NEWDELHI_GRADE NEWDELHI_WIND NEWDELHI_PRES NEWDELHI_CI NEWDELHI_DP NEWDELHI_POCI REUNION_LAT REUNION_LON REUNION_TYPE REUNION_WIND REUNION_PRES REUNION_TNUM REUNION_CI REUNION_RMW REUNION_R34_NE REUNION_R34_SE REUNION_R34_SW REUNION_R34_NW REUNION_R50_NE REUNION_R50_SE REUNION_R50_SW REUNION_R50_NW REUNION_R64_NE REUNION_R64_SE REUNION_R64_SW REUNION_R64_NW BOM_LAT BOM_LON BOM_TYPE BOM_WIND BOM_PRES BOM_TNUM BOM_CI BOM_RMW BOM_R34_NE BOM_R34_SE BOM_R34_SW BOM_R34_NW BOM_R50_NE BOM_R50_SE BOM_R50_SW BOM_R50_NW BOM_R64_NE BOM_R64_SE BOM_R64_SW BOM_R64_NW BOM_ROCI BOM_POCI BOM_EYE BOM_POS_METHOD BOM_PRES_METHOD NADI_LAT NADI_LON NADI_CAT NADI_WIND NADI_PRES WELLINGTON_LAT WELLINGTON_LON WELLINGTON_WIND WELLINGTON_PRES DS824_LAT DS824_LON DS824_STAGE DS824_WIND DS824_PRES TD9636_LAT TD9636_LON TD9636_STAGE TD9636_WIND TD9636_PRES TD9635_LAT TD9635_LON TD9635_WIND TD9635_PRES TD9635_ROCI NEUMANN_LAT NEUMANN_LON NEUMANN_CLASS NEUMANN_WIND NEUMANN_PRES MLC_LAT MLC_LON MLC_CLASS MLC_WIND MLC_PRES USA_GUST BOM_GUST BOM_GUST_PER REUNION_GUST REUNION_GUST_PER USA_SEAHGT USA_SEARAD_NE USA_SEARAD_SE USA_SEARAD_SW USA_SEARAD_NW STORM_SPEED STORM_DIR
1991187N06139 1991 35 WP MM ZEKE 1991-07-06 00:00:00 NR 5.70000 138.900 main 801 796 O_____________ jtwc_wp WP061991 5.70000 138.900 15 -1 9 308
1991187N06139 1991 35 WP MM ZEKE 1991-07-06 03:00:00 NR 5.96003 138.560 main 818 811 P_____________ WP061991 5.96003 138.560 15 -1 9 306
1991187N06139 1991 35 WP MM ZEKE 1991-07-06 06:00:00 NR 6.20000 138.200 main 825 821 O_____________ jtwc_wp WP061991 6.20000 138.200 15 -1 9 301
1991187N06139 1991 35 WP MM ZEKE 1991-07-06 09:00:00 NR 6.40749 137.807 main 832 829 P_____________ WP061991 6.40749 137.807 15 -1 9 297
1991187N06139 1991 35 WP MM ZEKE 1991-07-06 12:00:00 NR 6.60000 137.400 main 842 839 O_____________ jtwc_wp WP061991 6.60000 137.400 15 -1 9 296
1991187N06139 1991 35 WP MM ZEKE 1991-07-06 15:00:00 NR 6.79995 137.007 main 854 852 P_____________ WP061991 6.79995 137.007 15 -1 9 297
1991187N06139 1991 35 WP MM ZEKE 1991-07-06 18:00:00 NR 7.00000 136.600 main 869 868 O_____________ jtwc_wp WP061991 7.00000 136.600 15 -1 9 295
1991187N06139 1991 35 WP MM ZEKE 1991-07-06 21:00:00 NR 7.19245 136.165 main 887 886 P_____________ WP061991 7.19245 136.165 17 -1 10 294
1991187N06139 1991 35 WP MM ZEKE 1991-07-07 00:00:00 NR 7.40000 135.700 main 907 907 O_____________ jtwc_wp WP061991 7.40000 135.700 20 -1 10 296
1991187N06139 1991 35 WP MM ZEKE 1991-07-07 03:00:00 NR 7.64991 135.222 main 919 893 P_____________ WP061991 7.64991 135.222 20 -1 11 297
1991187N06139 1991 35 WP MM ZEKE 1991-07-07 06:00:00 NR 7.90000 134.700 main 893 839 O_____________ jtwc_wp WP061991 7.90000 134.700 20 -1 12 293
1991187N06139 1991 35 WP MM ZEKE 1991-07-07 09:00:00 NR 8.10740 134.130 main 828 763 P_____________ WP061991 8.10740 134.130 20 -1 13 289
1991187N06139 1991 35 WP MM ZEKE 1991-07-07 12:00:00 NR 8.30000 133.500 main 763 699 O_____________ jtwc_wp WP061991 8.30000 133.500 20 -1 14 287
1991187N06139 1991 35 WP MM ZEKE 1991-07-07 15:00:00 NR 8.49995 132.815 main 688 616 P_____________ WP061991 8.49995 132.815 20 -1 14 286
1991187N06139 1991 35 WP MM ZEKE 1991-07-07 18:00:00 NR 8.70000 132.100 main 616 545 O_____________ jtwc_wp WP061991 8.70000 132.100 20 -1 15 286
1991187N06139 1991 35 WP MM ZEKE 1991-07-07 21:00:00 NR 8.89991 131.392 main 545 477 P_____________ WP061991 8.89991 131.392 22 -1 14 286
1991187N06139 1991 35 WP MM ZEKE 1991-07-08 00:00:00 NR 9.10000 130.700 main 477 421 O_____________ jtwc_wp WP061991 9.10000 130.700 25 -1 14 287
1991187N06139 1991 35 WP MM ZEKE 1991-07-08 03:00:00 NR 9.29988 130.035 main 410 349 P_____________ WP061991 9.29988 130.035 25 -1 13 287
1991187N06139 1991 35 WP MM ZEKE 1991-07-08 06:00:00 NR 9.50000 129.400 main 349 290 O_____________ jtwc_wp WP061991 9.50000 129.400 25 -1 13 288
1991187N06139 1991 35 WP MM ZEKE 1991-07-08 09:00:00 NR 9.69993 128.777 main 290 233 P_____________ WP061991 9.69993 128.777 25 -1 13 289
1991187N06139 1991 35 WP MM ZEKE 1991-07-08 12:00:00 NR 9.90000 128.200 main 233 192 O_____________ jtwc_wp WP061991 9.90000 128.200 25 -1 12 290
1991187N06139 1991 35 WP MM ZEKE 1991-07-08 15:00:00 NR 10.0924 127.677 main 192 153 P_____________ WP061991 10.0924 127.677 25 -1 11 290
1991187N06139 1991 35 WP MM ZEKE 1991-07-08 18:00:00 NR 10.2600 127.180 main 159 122 O__O__________ jtwc_wp WP061991 10.3000 127.200 25 -1 10.1000 127.100 TD 25 1000 10 295
1991187N06139 1991 35 WP MM ZEKE 1991-07-08 21:00:00 NR 10.4941 126.794 main 122 83 P__P__________ WP061991 10.5424 126.742 25 -1 10.3975 126.898 TD 25 1000 9 306
1991187N06139 1991 35 WP MM ZEKE 1991-07-09 00:00:00 NR 10.7571 126.471 main 79 43 O__O__________ jtwc_wp WP061991 10.8000 126.300 25 -1 10.7000 126.700 TD 25 1000 8 311
1991187N06139 1991 35 WP MM ZEKE 1991-07-09 03:00:00 NR 11.0175 126.175 main 43 31 P__P__________ WP061991 11.0275 125.842 25 -1 11.0075 126.507 TD 27 1000 8 315
1991187N06139 1991 35 WP MM ZEKE 1991-07-09 06:00:00 TS 11.3444 125.867 1004 tokyo main 31 10 OO_O__________ jtwc_wp WP061991 11.3000 125.400 25 -1 11.7000 126.000 2 1004 0 0 0 11.3000 126.300 TD 30 1000 9 317
1991187N06139 1991 35 WP MM ZEKE 1991-07-09 09:00:00 TS 11.6728 125.556 main 10 0 PP_P__________ WP061991 11.6774 125.007 25 -1 11.9853 125.488 2 1003 0 0 11.5121 126.139 TD 30 997 10 315
1991187N06139 1991 35 WP MM ZEKE 1991-07-09 12:00:00 TS 12.0455 125.145 1002 tokyo main 0 0 OO_O__________ jtwc_wp WP061991 12.1000 124.600 25 -1 12.3000 125.000 2 1002 0 0 0 11.8000 125.800 TD 30 995 13 311
1991187N06139 1991 35 WP MM ZEKE 1991-07-09 15:00:00 TS 12.4999 124.588 main 0 0 PP_P__________ WP061991 12.5073 124.137 25 -1 12.6572 124.537 2 1001 0 0 12.3353 125.091 TD 30 995 15 309
1991187N06139 1991 35 WP MM ZEKE 1991-07-09 18:00:00 TS 12.9769 123.946 1000 tokyo main 0 0 OOOO__________ jtwc_wp WP061991 12.9000 123.600 25 -1 13.0000 124.000 2 1000 0 0 0 13.5000 124.100 1 29 1000 12.9000 124.200 TD 30 995 16 301
1991187N06139 1991 35 WP MM ZEKE 1991-07-09 21:00:00 TS 13.3197 123.213 main 10 0 PPPP__________ WP061991 13.2724 122.980 27 -1 13.2801 123.280 2 1000 0 0 13.5555 123.288 1 29 1000 13.2950 123.335 TD 30 995 16 292
1991187N06139 1991 35 WP MM ZEKE 1991-07-10 00:00:00 TS 13.5733 122.447 1000 tokyo main 0 0 OOOO__________ jtwc_wp WP061991 13.6000 122.300 30 -1 13.5000 122.500 2 1000 0 0 0 13.6000 122.500 1 29 1000 13.6000 122.500 TD 30 995 15 287
1991187N06139 1991 35 WP MM ZEKE 1991-07-10 03:00:00 TS 13.7667 121.729 main 15 0 PPPP__________ WP061991 13.8723 121.615 30 -1 13.6800 121.762 2 999 0 0 13.6348 121.762 1 29 999 13.8796 121.777 TD 30 995 14 285
1991187N06139 1991 35 WP MM ZEKE 1991-07-10 06:00:00 TS 13.9250 121.050 998 tokyo main 0 0 OOOO__________ jtwc_wp WP061991 14.1000 120.900 30 -1 13.8000 121.100 2 998 0 0 0 13.7000 121.100 1 29 998 14.1000 121.100 TD 30 995 13 283
1991187N06139 1991 35 WP MM ZEKE 1991-07-10 09:00:00 TS 14.0566 120.421 main 21 21 PPPP__________ WP061991 14.3150 120.142 32 -1 13.8270 120.592 2 998 0 0 13.8196 120.550 1 33 996 14.2648 120.400 TD 30 995 12 283
1991187N06139 1991 35 WP MM ZEKE 1991-07-10 12:00:00 TS 14.2000 119.800 998 tokyo main 70 70 OOOO__________ jtwc_wp WP061991 14.5000 119.400 35 0 13.9000 120.100 2 998 0 0 0 14.0000 120.000 2 38 995 14.4000 119.700 TD 30 995 13 286
1991187N06139 1991 35 WP MM ZEKE 1991-07-10 15:00:00 TS 14.4029 119.144 main 116 116 PPPP__________ WP061991 14.6647 118.727 35 0 14.1621 119.510 2 997 0 0 14.2348 119.337 2 38 995 14.5498 119.000 TD 32 992 14 288
1991187N06139 1991 35 WP MM ZEKE 1991-07-10 18:00:00 TS 14.6250 118.450 35 996 tokyo main 173 173 OOOO__________ jtwc_wp WP061991 14.8000 118.100 35 0 14.5000 118.800 3 35 996 0 9 50 50 0 14.5000 118.600 2 38 995 14.7000 118.300 TS 35 990 15 287
1991187N06139 1991 35 WP MM ZEKE 1991-07-10 21:00:00 TS 14.8326 117.691 main 245 245 PPPP__________ WP061991 14.8999 117.477 37 0 14.8229 117.908 3 40 994 0 9 85 85 14.7575 117.800 2 38 992 14.8500 117.577 TS 37 987 15 285
1991187N06139 1991 35 WP MM ZEKE 1991-07-11 00:00:00 TS 15.0250 116.950 45 992 tokyo main 310 310 OOOO__________ jtwc_wp WP061991 15.0000 116.900 40 0 15.1000 117.000 3 45 992 0 9 120 120 0 15.0000 117.000 2 38 990 15.0000 116.900 TS 40 985 14 285
1991187N06139 1991 35 WP MM ZEKE 1991-07-11 03:00:00 TS 15.2023 116.291 main 375 375 PPPP__________ WP061991 15.1423 116.385 42 0 15.2873 116.225 3 47 991 0 9 130 130 15.2300 116.240 2 43 987 15.1498 116.312 TS 42 985 12 285
1991187N06139 1991 35 WP MM ZEKE 1991-07-11 06:00:00 TS 15.3500 115.725 50 990 tokyo main 433 433 OOOO__________ jtwc_wp WP061991 15.3000 115.900 45 0 15.4000 115.600 4 50 990 0 9 140 140 0 15.4000 115.600 3 48 985 15.3000 115.800 TS 45 985 10 284
1991187N06139 1991 35 WP MM ZEKE 1991-07-11 09:00:00 TS 15.4460 115.257 main 475 475 PPPP__________ WP061991 15.4424 115.392 47 0 15.4421 115.155 4 50 987 0 9 140 140 15.4571 115.155 3 48 985 15.4424 115.327 TS 47 982 9 283
1991187N06139 1991 35 WP MM ZEKE 1991-07-11 12:00:00 TS 15.5500 114.850 50 985 tokyo main 515 516 OOOO__________ jtwc_wp WP061991 15.6000 114.900 50 0 15.5000 114.800 4 50 985 0 9 140 140 0 15.5000 114.800 3 48 985 15.6000 114.900 STS 50 980 8 288
1991187N06139 1991 35 WP MM ZEKE 1991-07-11 15:00:00 TS 15.7131 114.428 main 540 493 PPPP__________ WP061991 15.7849 114.435 52 0 15.6699 114.400 4 52 982 0 9 170 130 15.6124 114.400 3 48 985 15.7850 114.477 STS 52 980 9 295
1991187N06139 1991 35 WP MM ZEKE 1991-07-11 18:00:00 TS 15.9250 114.025 55 980 tokyo main 493 447 OOOO__________ jtwc_wp WP061991 16.0000 114.000 55 0 15.9000 114.000 4 55 980 9 30 30 3 200 120 0 15.8000 114.000 3 48 985 16.0000 114.100 STS 55 980 9 301
1991187N06139 1991 35 WP MM ZEKE 1991-07-11 21:00:00 TS 16.1668 113.639 main 439 400 PPPP__________ WP061991 16.2274 113.585 57 0 16.1350 113.585 4 57 977 9 35 35 3 250 120 16.0700 113.593 3 53 982 16.2349 113.792 STS 57 977 9 306
1991187N06139 1991 35 WP MM ZEKE 1991-07-12 00:00:00 TS 16.4500 113.275 60 975 tokyo main 392 354 OOOO__________ jtwc_wp WP061991 16.5000 113.200 60 0 16.4000 113.200 4 60 975 9 40 40 2 300 120 0 16.4000 113.200 3 58 980 16.5000 113.500 STS 60 975 9 311
1991187N06139 1991 35 WP MM ZEKE 1991-07-12 03:00:00 TS 16.7580 112.935 main 338 292 PPPP__________ WP061991 16.8424 112.850 62 0 16.6773 112.900 4 62 972 9 50 50 2 325 135 16.7425 112.827 3 58 977 16.7699 113.165 STS 60 975 9 315
1991187N06139 1991 35 WP MM ZEKE 1991-07-12 06:00:00 TS 17.1000 112.600 65 970 tokyo main 292 239 OOOO__________ jtwc_wp WP061991 17.2000 112.500 65 1 17.0000 112.600 5 65 970 9 60 60 2 350 150 0 17.1000 112.500 3 58 975 17.1000 112.800 STS 60 975 10 318
1991187N06139 1991 35 WP MM ZEKE 1991-07-12 09:00:00 TS 17.4748 112.267 main 239 185 PPPP__________ WP061991 17.5074 112.115 67 1 17.3999 112.230 5 65 970 9 90 55 2 350 150 17.4421 112.287 3 63 972 17.5498 112.437 STS 62 972 10 317
1991187N06139 1991 35 WP MM ZEKE 1991-07-12 12:00:00 TS 17.8500 111.875 65 970 tokyo main 178 116 OOOO__________ jtwc_wp WP061991 17.8000 111.700 70 1 17.8000 111.800 5 65 970 3 120 50 3 350 150 0 17.8000 112.000 4 68 970 18.0000 112.000 T 65 970 11 310
1991187N06139 1991 35 WP MM ZEKE 1991-07-12 15:00:00 TS 18.2051 111.353 main 116 46 PPPP__________ WP061991 18.0999 111.265 75 1 18.1300 111.307 5 65 970 3 120 50 3 350 150 18.2454 111.431 4 77 965 18.3452 111.408 T 67 967 12 302
1991187N06139 1991 35 WP MM ZEKE 1991-07-12 18:00:00 TS 18.5000 110.800 65 970 tokyo main 46 0 OOOO__________ jtwc_wp WP061991 18.4000 110.800 80 1 18.4000 110.800 5 65 970 3 120 50 3 350 150 0 18.6000 110.800 5 87 960 18.6000 110.800 T 70 965 11 296
1991187N06139 1991 35 WP MM ZEKE 1991-07-12 21:00:00 TS 18.6768 110.311 main 0 0 PPPP__________ WP061991 18.6925 110.300 75 1 18.6000 110.320 5 62 972 3 120 50 3 350 150 18.6648 110.312 5 82 962 18.7498 110.312 T 70 965 9 292
1991187N06139 1991 35 WP MM ZEKE 1991-07-13 00:00:00 TS 18.8500 109.875 60 975 tokyo main 0 0 OOOO__________ jtwc_wp WP061991 19.0000 109.800 70 1 18.8000 109.900 4 60 975 3 120 50 3 350 150 0 18.7000 109.900 4 77 965 18.9000 109.900 T 70 965 9 301
1991187N06139 1991 35 WP MM ZEKE 1991-07-13 03:00:00 TS 19.1417 109.497 main 0 0 PPPP__________ WP061991 19.3498 109.350 67 1 19.0848 109.577 4 60 975 3 90 55 3 350 150 18.9549 109.520 4 67 970 19.1773 109.542 T 65 970 9 312
1991187N06139 1991 35 WP MM ZEKE 1991-07-13 06:00:00 TS 19.4750 109.150 60 975 tokyo main 0 0 OOOO__________ jtwc_wp WP061991 19.7000 108.900 65 1 19.4000 109.300 4 60 975 9 60 60 3 350 150 0 19.3000 109.200 3 58 975 19.5000 109.200 STS 60 975 9 315
1991187N06139 1991 35 WP MM ZEKE 1991-07-13 09:00:00 TS 19.7891 108.819 main 35 35 PPPP__________ WP061991 19.9923 108.422 65 1 19.7071 109.052 4 57 977 9 55 55 3 350 150 19.6571 108.987 3 58 975 19.7999 108.815 STS 60 975 9 312
1991187N06139 1991 35 WP MM ZEKE 1991-07-13 12:00:00 TS 20.1000 108.425 55 980 tokyo main 84 84 OOOO__________ jtwc_wp WP061991 20.3000 107.900 65 1 20.0000 108.700 4 55 980 9 50 50 3 350 150 0 20.0000 108.700 3 58 975 20.1000 108.400 STS 60 975 11 304
1991187N06139 1991 35 WP MM ZEKE 1991-07-13 15:00:00 TS 20.4059 107.861 main 84 24 PPPP__________ WP061991 20.7152 107.293 62 0 20.2506 108.065 4 55 980 9 50 50 3 325 150 20.2579 108.130 3 58 975 20.3999 107.957 STS 57 977 12 299
1991187N06139 1991 35 WP MM ZEKE 1991-07-13 18:00:00 TS 20.7000 107.275 55 980 tokyo main 24 0 OOOO__________ jtwc_wp WP061991 21.1000 106.700 60 0 20.5000 107.400 4 55 980 9 50 50 3 300 150 0 20.5000 107.500 3 58 975 20.7000 107.500 STS 55 980 11 301
1991187N06139 1991 35 WP MM ZEKE 1991-07-13 21:00:00 TS 20.9935 106.815 main 0 0 PPPP__________ WP061991 21.3222 106.227 52 0 20.8146 106.962 4 55 982 9 50 50 3 225 125 20.8147 107.020 3 58 977 21.0224 107.050 STS 55 980 10 304
1991187N06139 1991 35 WP MM ZEKE 1991-07-14 00:00:00 TS 21.2500 106.400 55 985 tokyo main 0 0 OOOO__________ jtwc_wp WP061991 21.5000 105.800 45 0 21.1000 106.600 4 55 985 9 50 50 3 150 100 0 21.1000 106.600 3 58 980 21.3000 106.600 STS 55 980 9 300
1991187N06139 1991 35 WP MM ZEKE 1991-07-14 03:00:00 TS 21.4436 105.975 main 0 0 PPPP__________ WP061991 21.7497 105.365 40 0 21.2725 106.177 4 47 987 9 3 145 75 21.2648 106.200 3 53 982 21.4873 106.157 STS 47 985 8 293
1991187N06139 1991 35 WP MM ZEKE 1991-07-14 06:00:00 TS 21.5714 105.586 40 990 tokyo main 0 0 OOOO__________ jtwc_wp WP061991 22.0000 104.900 35 0 21.4000 105.800 3 40 990 0 3 140 50 0 21.4000 105.800 3 48 985 21.6000 105.700 TS 40 990 7 290
1991187N06139 1991 35 WP MM ZEKE 1991-07-14 09:00:00 TS 21.6883 105.242 main 0 0 PPPP__________ WP061991 22.2130 104.370 30 -1 21.5344 105.587 3 994 0 3 21.5925 105.350 3 38 990 21.6629 105.210 TS 32 992 7 291
1991187N06139 1991 35 WP MM ZEKE 1991-07-14 12:00:00 TS 21.8100 104.930 998 tokyo main 0 0 OOOO__________ jtwc_wp WP061991 22.4000 103.800 25 -1 21.7000 105.300 2 998 0 0 0 21.8000 104.900 1 29 995 21.7000 104.700 TD 25 995 7 297
1991187N06139 1991 35 WP MM ZEKE 1991-07-14 15:00:00 TS 21.9901 104.602 main 0 0 _PP___________ WP061991 -1 21.9731 104.688 2 999 0 0 22.0072 104.515 1 26 996 TD 9 296
1991187N06139 1991 35 WP MM ZEKE 1991-07-14 18:00:00 TS 22.2000 104.050 1000 tokyo main 0 0 _OO___________ -1 22.2000 104.000 2 1000 0 0 0 22.2000 104.100 1 23 997 11 288
1991187N06139 1991 35 WP MM ZEKE 1991-07-14 21:00:00 TS 22.3077 103.516 main 0 0 _PP___________ -1 22.2548 103.449 2 1000 0 0 22.3606 103.583 1 23 998 10 279
1991187N06139 1991 35 WP MM ZEKE 1991-07-15 00:00:00 TS 22.3500 103.000 1000 tokyo main 0 _OO___________ -1 22.2000 103.000 2 1000 0 0 0 22.5000 103.000 1 23 1000 10 275

デジタル台風データ・検索

IBTrACS Databaseについて

本データベースは、米国NOAAが公開する1842年以降の世界の熱帯低気圧のベストトラックデータアーカイブInternational Best Track Archive for Climate Stewardship (IBTrACS)を、ウェブで閲覧しやすい形式に変換したものです。

最終更新日:2021-12-03